createdAt,value
2018-04-13T00:02:16.884Z,8.04
2018-04-13T00:04:45.902Z,7.95
2018-04-13T00:07:14.150Z,7.88
2018-04-13T00:09:43.162Z,7.79
2018-04-13T00:12:11.431Z,7.69
2018-04-13T00:14:40.168Z,7.62
2018-04-13T00:17:08.436Z,7.56
2018-04-13T00:19:36.670Z,7.52
2018-04-13T00:22:04.932Z,7.69
2018-04-13T00:24:33.168Z,7.57
2018-04-13T00:27:01.424Z,7.65
2018-04-13T00:29:30.430Z,7.55
2018-04-13T00:31:59.449Z,7.15
2018-04-13T00:34:27.699Z,6.98
2018-04-13T00:36:56.720Z,6.92
2018-04-13T00:39:24.962Z,6.85
2018-04-13T00:41:53.199Z,6.88
2018-04-13T00:44:21.451Z,6.89
2018-04-13T00:46:49.703Z,6.86
2018-04-13T00:49:17.954Z,6.98
2018-04-13T00:51:46.200Z,6.81
2018-04-13T00:54:14.443Z,6.76
2018-04-13T00:56:42.694Z,6.69
2018-04-13T00:59:10.939Z,6.61
2018-04-13T01:01:39.195Z,6.60
2018-04-13T01:04:08.209Z,6.54
2018-04-13T01:06:36.454Z,6.48
2018-04-13T01:09:04.723Z,6.62
2018-04-13T01:11:32.966Z,6.33
2018-04-13T01:14:01.219Z,6.27
2018-04-13T01:16:30.246Z,6.23
2018-04-13T01:18:58.503Z,6.22
2018-04-13T01:21:27.516Z,6.34
2018-04-13T01:23:55.776Z,6.18
2018-04-13T01:26:24.789Z,6.24
2018-04-13T01:28:53.047Z,6.25
2018-04-13T01:31:22.055Z,6.33
2018-04-13T01:33:51.076Z,6.21
2018-04-13T01:36:19.315Z,6.01
2018-04-13T01:38:47.742Z,5.87
2018-04-13T01:41:15.987Z,5.97
2018-04-13T01:43:45.004Z,5.70
2018-04-13T01:46:13.238Z,5.80
2018-04-13T01:48:41.490Z,5.87
2018-04-13T01:51:09.727Z,6.16
2018-04-13T01:53:38.742Z,6.23
2018-04-13T01:56:06.991Z,6.11
2018-04-13T01:58:35.248Z,6.04
2018-04-13T02:01:03.496Z,6.03
2018-04-13T02:03:31.751Z,6.13
2018-04-13T02:06:00.770Z,6.22
2018-04-13T02:08:29.007Z,6.19
2018-04-13T02:10:57.253Z,6.22
2018-04-13T02:13:25.495Z,6.20
2018-04-13T02:15:53.747Z,6.28
2018-04-13T02:18:21.993Z,6.42
2018-04-13T02:20:50.238Z,6.39
2018-04-13T02:23:18.489Z,6.39
2018-04-13T02:25:46.746Z,6.41
2018-04-13T02:28:15.003Z,6.84
2018-04-13T02:30:43.399Z,6.83
2018-04-13T02:33:11.659Z,6.55
2018-04-13T02:35:39.894Z,6.42
2018-04-13T02:38:08.142Z,6.35
2018-04-13T02:40:36.404Z,6.33
2018-04-13T02:43:04.661Z,6.35
2018-04-13T02:45:33.671Z,6.31
2018-04-13T02:48:01.930Z,6.29
2018-04-13T02:50:30.187Z,6.29
2018-04-13T02:52:58.432Z,6.30
2018-04-13T02:55:26.685Z,6.27
2018-04-13T02:57:54.926Z,6.54
2018-04-13T03:00:23.183Z,6.56
2018-04-13T03:02:51.432Z,6.45
2018-04-13T03:05:19.679Z,6.22
2018-04-13T03:07:48.708Z,6.04
2018-04-13T03:10:16.947Z,5.99
2018-04-13T03:12:45.204Z,6.00
2018-04-13T03:15:13.444Z,5.93
2018-04-13T03:17:41.702Z,5.92
2018-04-13T03:20:10.727Z,5.88
2018-04-13T03:22:39.504Z,5.95
2018-04-13T03:25:08.515Z,6.05
2018-04-13T03:27:36.766Z,6.12
2018-04-13T03:30:05.775Z,6.51
2018-04-13T03:32:34.801Z,6.37
2018-04-13T03:35:03.045Z,6.23
2018-04-13T03:37:32.064Z,6.27
2018-04-13T03:40:00.322Z,6.25
2018-04-13T03:42:29.353Z,6.34
2018-04-13T03:44:57.606Z,6.26
2018-04-13T03:47:26.619Z,6.13
2018-04-13T03:49:54.870Z,6.10
2018-04-13T03:52:23.897Z,6.06
2018-04-13T03:54:52.142Z,6.02
2018-04-13T03:57:20.439Z,6.02
2018-04-13T03:59:49.445Z,6.02
2018-04-13T04:02:18.460Z,6.08
2018-04-13T04:04:46.707Z,6.20
2018-04-13T04:07:15.741Z,6.09
2018-04-13T04:09:43.985Z,6.37
2018-04-13T04:12:13.008Z,6.26
2018-04-13T04:14:41.255Z,5.94
2018-04-13T04:17:10.850Z,5.77
2018-04-13T04:19:56.684Z,5.69
2018-04-13T04:22:42.375Z,5.60
2018-04-13T04:28:19.877Z,5.55
2018-04-13T04:30:48.123Z,5.74
2018-04-13T04:33:17.126Z,5.65
2018-04-13T04:35:45.948Z,5.84
2018-04-13T04:38:14.218Z,5.77
2018-04-13T04:40:42.469Z,5.44
2018-04-13T04:43:11.596Z,5.38
2018-04-13T04:45:39.822Z,5.41
2018-04-13T04:48:08.130Z,5.42
2018-04-13T04:50:37.154Z,5.51
2018-04-13T04:53:05.399Z,5.60
2018-04-13T04:55:34.420Z,5.68
2018-04-13T04:58:02.675Z,5.69
2018-04-13T05:00:31.696Z,5.75
2018-04-13T05:02:59.962Z,5.78
2018-04-13T05:05:28.970Z,5.96
2018-04-13T05:07:58.099Z,6.01
2018-04-13T05:10:26.369Z,6.58
2018-04-13T05:12:54.607Z,6.76
2018-04-13T05:15:22.867Z,6.86
2018-04-13T05:17:51.110Z,6.90
2018-04-13T05:20:19.362Z,7.07
2018-04-13T05:22:48.375Z,7.33
2018-04-13T05:25:17.251Z,7.39
2018-04-13T05:27:46.251Z,7.63
2018-04-13T05:30:15.265Z,7.88
2018-04-13T05:32:43.528Z,8.01
2018-04-13T05:35:12.590Z,8.17
2018-04-13T05:37:40.786Z,8.55
2018-04-13T05:40:09.047Z,10.24
2018-04-13T05:42:37.290Z,13.79
2018-04-13T05:45:05.558Z,15.32
2018-04-13T05:47:33.807Z,16.68
2018-04-13T05:50:02.083Z,16.49
2018-04-13T05:52:30.335Z,17.51
2018-04-13T05:54:58.604Z,16.46
2018-04-13T05:57:26.852Z,17.20
2018-04-13T05:59:55.871Z,20.27
2018-04-13T06:02:24.130Z,21.28
2018-04-13T06:04:52.387Z,19.62
2018-04-13T06:07:20.642Z,18.28
2018-04-13T06:09:48.897Z,18.79
2018-04-13T06:12:17.155Z,20.08
2018-04-13T06:14:45.407Z,19.21
2018-04-13T06:17:13.667Z,19.49
2018-04-13T06:19:41.915Z,20.27
2018-04-13T06:22:10.176Z,21.38
2018-04-13T06:24:38.426Z,21.43
2018-04-13T06:27:06.699Z,23.04
2018-04-13T06:29:35.019Z,25.10
2018-04-13T06:32:03.210Z,25.58
2018-04-13T06:34:31.471Z,25.57
2018-04-13T06:37:00.508Z,24.83
2018-04-13T06:39:28.751Z,23.22
2018-04-13T06:41:57.778Z,23.78
2018-04-13T06:44:26.023Z,20.30
2018-04-13T06:46:55.056Z,19.08
2018-04-13T06:49:23.307Z,17.53
2018-04-13T06:51:53.562Z,16.15
2018-04-13T06:54:21.832Z,16.22
2018-04-13T06:56:50.083Z,15.16
2018-04-13T06:59:19.116Z,14.14
2018-04-13T07:01:47.363Z,13.95
2018-04-13T07:04:16.395Z,13.86
2018-04-13T07:06:44.652Z,13.97
2018-04-13T07:09:13.680Z,15.08
2018-04-13T07:11:41.930Z,15.40
2018-04-13T07:14:10.181Z,16.16
2018-04-13T07:16:38.432Z,16.12
2018-04-13T07:19:06.690Z,15.84
2018-04-13T07:21:34.938Z,17.32
2018-04-13T07:24:03.970Z,17.47
2018-04-13T07:26:32.223Z,16.11
2018-04-13T07:29:01.247Z,15.90
2018-04-13T07:31:29.503Z,18.55
2018-04-13T07:33:58.666Z,19.51
2018-04-13T07:36:26.916Z,19.68
2018-04-13T07:38:55.495Z,21.63
2018-04-13T07:41:24.218Z,24.10
2018-04-13T07:43:52.470Z,22.72
2018-04-13T07:46:20.716Z,22.81
2018-04-13T07:48:49.801Z,22.81
2018-04-13T07:51:18.069Z,20.43
2018-04-13T07:53:46.336Z,22.58
2018-04-13T07:56:14.599Z,23.97
2018-04-13T07:58:43.285Z,22.85
2018-04-13T08:01:11.117Z,21.18
2018-04-13T08:03:40.466Z,20.72
2018-04-13T08:06:08.398Z,20.60
2018-04-13T08:08:37.410Z,20.71
2018-04-13T08:11:05.678Z,18.85
2018-04-13T08:13:34.697Z,20.33
2018-04-13T08:16:02.983Z,19.51
2018-04-13T08:18:31.238Z,18.87
2018-04-13T08:21:00.264Z,19.21
2018-04-13T08:23:28.533Z,19.02
2018-04-13T08:25:56.791Z,19.45
2018-04-13T08:28:25.808Z,18.28
2018-04-13T08:30:54.084Z,18.09
2018-04-13T08:33:24.351Z,17.81
2018-04-13T08:35:52.599Z,18.07
2018-04-13T08:38:20.868Z,18.08
2018-04-13T08:40:49.884Z,18.29
2018-04-13T08:43:18.171Z,19.17
2018-04-13T08:45:46.402Z,18.31
2018-04-13T08:48:14.669Z,20.38
2018-04-13T08:50:42.930Z,21.80
2018-04-13T08:53:11.197Z,21.40
2018-04-13T08:55:39.437Z,20.32
2018-04-13T08:58:07.723Z,21.42
2018-04-13T09:00:36.751Z,23.25
2018-04-13T09:03:05.016Z,22.36
2018-04-13T09:05:33.271Z,22.66
2018-04-13T09:08:02.314Z,21.96
2018-04-13T09:10:30.562Z,23.20
2018-04-13T09:12:58.887Z,24.79
2018-04-13T09:15:27.863Z,27.56
2018-04-13T09:17:56.131Z,27.86
2018-04-13T09:20:24.387Z,27.17
2018-04-13T09:22:53.607Z,27.57
2018-04-13T09:25:21.862Z,29.34
2018-04-13T09:27:50.115Z,29.52
2018-04-13T09:30:18.388Z,27.48
2018-04-13T09:32:46.758Z,25.81
2018-04-13T09:35:15.073Z,24.88
2018-04-13T09:37:43.291Z,23.29
2018-04-13T09:40:13.105Z,22.01
2018-04-13T09:42:41.371Z,23.21
2018-04-13T09:45:10.397Z,25.88
2018-04-13T09:47:38.654Z,28.53
2018-04-13T09:50:07.670Z,29.82
2018-04-13T09:52:35.939Z,27.12
2018-04-13T09:55:04.195Z,27.88
2018-04-13T09:57:32.456Z,26.54
2018-04-13T10:00:00.719Z,27.75
2018-04-13T10:02:44.771Z,28.30
2018-04-13T10:05:16.671Z,27.50
2018-04-13T10:07:45.704Z,25.79
2018-04-13T10:10:13.949Z,24.57
2018-04-13T10:12:42.971Z,24.46
2018-04-13T10:15:11.219Z,26.85
2018-04-13T10:17:39.484Z,27.46
2018-04-13T10:20:07.738Z,28.61
2018-04-13T10:22:35.999Z,29.47
2018-04-13T10:25:04.252Z,26.51
2018-04-13T10:27:33.288Z,25.26
2018-04-13T10:30:01.540Z,24.56
2018-04-13T10:32:29.795Z,24.07
2018-04-13T10:34:58.071Z,25.09
2018-04-13T10:37:26.320Z,24.65
2018-04-13T10:39:54.583Z,23.72
2018-04-13T10:42:22.836Z,23.99
2018-04-13T10:44:51.902Z,24.91
2018-04-13T10:47:20.139Z,24.36
2018-04-13T10:49:48.412Z,24.69
2018-04-13T10:52:16.672Z,25.43
2018-04-13T10:54:45.696Z,25.31
2018-04-13T10:57:13.934Z,24.90
2018-04-13T10:59:42.200Z,24.13
2018-04-13T11:02:10.450Z,22.63
2018-04-13T11:04:38.715Z,22.07
2018-04-13T11:07:06.964Z,21.24
2018-04-13T11:09:35.994Z,20.32
2018-04-13T11:12:04.242Z,19.96
2018-04-13T11:14:33.284Z,19.96
2018-04-13T11:17:01.535Z,19.20
2018-04-13T11:19:31.051Z,19.49
2018-04-13T11:21:59.572Z,19.28
2018-04-13T11:24:27.845Z,18.56
2018-04-13T11:26:56.091Z,18.79
2018-04-13T11:29:24.375Z,19.16
2018-04-13T11:31:52.637Z,18.96
2018-04-13T11:34:21.659Z,19.67
2018-04-13T11:36:49.916Z,20.16
2018-04-13T11:39:18.934Z,20.92
2018-04-13T11:41:47.201Z,21.65
2018-04-13T11:44:16.227Z,22.13
2018-04-13T11:46:44.489Z,22.26
2018-04-13T11:49:12.734Z,21.93
2018-04-13T11:51:41.000Z,21.82
2018-04-13T11:54:10.495Z,22.36
2018-04-13T11:56:38.839Z,22.98
2018-04-13T11:59:07.114Z,25.58
2018-04-13T12:01:36.162Z,26.68
2018-04-13T12:04:04.411Z,27.17
2018-04-13T12:06:32.665Z,24.08
2018-04-13T12:09:00.947Z,25.37
2018-04-13T12:11:29.974Z,26.03
2018-04-13T12:13:58.235Z,23.93
2018-04-13T12:16:26.489Z,22.85
2018-04-13T12:18:54.755Z,21.41
2018-04-13T12:21:22.999Z,20.92
2018-04-13T12:23:51.267Z,22.44
2018-04-13T12:26:19.539Z,23.30
2018-04-13T12:28:48.552Z,22.33
2018-04-13T12:31:17.037Z,20.71
2018-04-13T12:33:45.294Z,19.94
2018-04-13T12:36:14.317Z,19.54
2018-04-13T12:38:42.687Z,20.53
2018-04-13T12:41:10.938Z,21.01
2018-04-13T12:43:39.191Z,22.26
2018-04-13T12:46:08.691Z,23.94
2018-04-13T12:48:36.955Z,25.31
2018-04-13T12:51:05.203Z,26.13
2018-04-13T12:53:35.506Z,24.85
2018-04-13T12:56:03.727Z,24.67
2018-04-13T12:58:31.988Z,23.61
2018-04-13T13:01:01.015Z,23.36
2018-04-13T13:03:29.271Z,21.83
2018-04-13T13:05:57.531Z,20.80
2018-04-13T13:08:25.801Z,19.92
2018-04-13T13:10:54.056Z,19.28
2018-04-13T13:13:22.314Z,19.13
2018-04-13T13:15:50.567Z,19.20
2018-04-13T13:18:20.847Z,19.03
2018-04-13T13:20:49.092Z,18.87
2018-04-13T13:23:17.363Z,18.78
2018-04-13T13:25:45.618Z,18.69
2018-04-13T13:28:14.551Z,18.42
2018-04-13T13:30:42.860Z,18.47
2018-04-13T13:33:11.832Z,17.96
2018-04-13T13:35:40.083Z,17.59
2018-04-13T13:38:09.108Z,17.46
2018-04-13T13:40:37.369Z,17.18
2018-04-13T13:43:06.389Z,17.08
2018-04-13T13:45:34.652Z,16.99
2018-04-13T13:48:03.695Z,16.84
2018-04-13T13:50:31.951Z,16.68
2018-04-13T13:53:00.212Z,16.68
2018-04-13T13:55:28.478Z,16.51
2018-04-13T13:57:57.486Z,16.74
2018-04-13T14:00:26.478Z,16.27
2018-04-13T14:02:54.735Z,15.59
2018-04-13T14:05:22.987Z,15.34
2018-04-13T14:07:51.243Z,14.86
2018-04-13T14:10:20.474Z,14.30
2018-04-13T14:12:48.812Z,13.89
2018-04-13T14:15:17.082Z,13.78
2018-04-13T14:17:46.100Z,13.81
2018-04-13T14:20:14.361Z,13.80
2018-04-13T14:22:43.401Z,13.68
2018-04-13T14:25:11.636Z,13.49
2018-04-13T14:27:40.647Z,13.49
2018-04-13T14:30:08.919Z,13.39
2018-04-13T14:32:37.926Z,13.21
2018-04-13T14:35:06.188Z,13.14
2018-04-13T14:37:35.199Z,13.09
2018-04-13T14:40:04.227Z,13.31
2018-04-13T14:42:32.478Z,13.17
2018-04-13T14:45:01.517Z,12.51
2018-04-13T14:47:29.773Z,12.33
2018-04-13T14:49:58.023Z,12.87
2018-04-13T14:52:27.364Z,13.04
2018-04-13T14:54:55.626Z,12.37
2018-04-13T14:57:24.631Z,11.29
2018-04-13T14:59:52.892Z,8.32
2018-04-13T15:02:21.916Z,8.00
2018-04-13T15:04:50.423Z,7.96
2018-04-13T15:07:18.669Z,8.12
2018-04-13T15:09:46.917Z,8.14
2018-04-13T15:12:15.203Z,8.12
2018-04-13T15:14:43.442Z,8.41
2018-04-13T15:17:11.684Z,8.33
2018-04-13T15:19:40.775Z,8.46
2018-04-13T15:22:09.798Z,8.47
2018-04-13T15:24:38.047Z,8.62
2018-04-13T15:27:07.074Z,9.04
2018-04-13T15:29:35.319Z,8.92
2018-04-13T15:32:03.567Z,9.00
2018-04-13T15:34:31.814Z,8.96
2018-04-13T15:37:00.109Z,8.82
2018-04-13T15:39:29.070Z,8.83
2018-04-13T15:41:58.085Z,9.15
2018-04-13T15:44:26.343Z,9.41
2018-04-13T15:46:54.575Z,9.42
2018-04-13T15:49:22.827Z,9.14
2018-04-13T15:51:51.096Z,9.16
2018-04-13T15:54:20.114Z,9.07
2018-04-13T15:56:48.357Z,8.96
2018-04-13T15:59:17.390Z,9.15
2018-04-13T16:01:45.652Z,9.41
2018-04-13T16:04:13.903Z,9.70
2018-04-13T16:06:42.184Z,10.23
2018-04-13T16:09:10.417Z,10.58
2018-04-13T16:11:38.684Z,10.74
2018-04-13T16:14:07.443Z,11.17
2018-04-13T16:16:36.467Z,11.51
2018-04-13T16:19:04.734Z,11.67
2018-04-13T16:21:33.751Z,12.07
2018-04-13T16:24:02.123Z,12.25
2018-04-13T16:26:30.402Z,12.41
2018-04-13T16:28:59.427Z,12.41
2018-04-13T16:31:27.686Z,12.39
2018-04-13T16:33:55.951Z,12.53
2018-04-13T16:36:24.971Z,12.80
2018-04-13T16:38:53.244Z,13.02
2018-04-13T16:41:21.497Z,13.29
2018-04-13T16:43:49.768Z,13.34
2018-04-13T16:46:18.026Z,13.18
2018-04-13T16:48:46.281Z,13.03
2018-04-13T16:51:14.532Z,12.82
2018-04-13T16:53:44.804Z,12.72
2018-04-13T16:56:13.063Z,12.52
2018-04-13T16:58:41.328Z,12.33
2018-04-13T17:01:11.068Z,12.22
2018-04-13T17:03:39.345Z,12.15
2018-04-13T17:06:07.619Z,12.14
2018-04-13T17:08:35.888Z,12.09
2018-04-13T17:11:04.982Z,12.01
2018-04-13T17:13:34.026Z,11.87
2018-04-13T17:16:02.272Z,11.68
2018-04-13T17:18:30.529Z,11.57
2018-04-13T17:20:59.556Z,11.53
2018-04-13T17:23:27.808Z,11.37
2018-04-13T17:25:56.840Z,11.48
2018-04-13T17:28:25.142Z,11.33
2018-04-13T17:30:53.403Z,11.19
2018-04-13T17:33:21.670Z,11.09
2018-04-13T17:35:49.931Z,11.08
2018-04-13T17:38:18.622Z,10.70
2018-04-13T17:40:47.658Z,10.31
2018-04-13T17:43:15.902Z,10.23
2018-04-13T17:45:44.919Z,10.24
2018-04-13T17:48:13.184Z,10.16
2018-04-13T17:50:42.204Z,9.98
2018-04-13T17:53:10.444Z,9.79
2018-04-13T17:55:39.458Z,9.59
2018-04-13T17:58:07.715Z,9.24
2018-04-13T18:00:35.999Z,9.14
2018-04-13T18:03:04.299Z,8.97
2018-04-13T18:05:33.330Z,8.88
2018-04-13T18:08:01.588Z,8.74
2018-04-13T18:10:29.834Z,8.66
2018-04-13T18:12:58.152Z,8.52
2018-04-13T18:15:26.394Z,8.71
2018-04-13T18:17:54.645Z,8.46
2018-04-13T18:20:23.314Z,8.47
2018-04-13T18:22:51.574Z,8.19
2018-04-13T18:25:19.827Z,8.39
2018-04-13T18:27:48.131Z,8.55
2018-04-13T18:30:17.163Z,8.35
2018-04-13T18:32:45.425Z,8.18
2018-04-13T18:35:13.697Z,8.18
2018-04-13T18:37:41.957Z,8.05
2018-04-13T18:40:10.970Z,7.96
2018-04-13T18:42:39.248Z,8.10
2018-04-13T18:45:08.259Z,7.96
2018-04-13T18:47:36.519Z,7.72
2018-04-13T18:50:05.522Z,7.67
2018-04-13T18:52:34.547Z,7.58
2018-04-13T18:55:02.805Z,7.53
2018-04-13T18:57:31.080Z,7.48
2018-04-13T19:00:00.098Z,7.42
2018-04-13T19:02:28.352Z,7.32
2018-04-13T19:04:57.372Z,7.24
2018-04-13T19:07:25.644Z,7.19
2018-04-13T19:09:54.654Z,7.38
2018-04-13T19:12:22.911Z,7.30
2018-04-13T19:14:51.940Z,7.07
2018-04-13T19:17:20.200Z,6.99
2018-04-13T19:19:48.475Z,6.94
2018-04-13T19:22:17.523Z,6.96
2018-04-13T19:24:45.861Z,6.90
2018-04-13T19:27:14.117Z,6.93
2018-04-13T19:29:42.368Z,7.02
2018-04-13T19:32:10.637Z,7.35
2018-04-13T19:34:39.723Z,7.42
2018-04-13T19:37:07.982Z,7.25
2018-04-13T19:39:37.001Z,7.17
2018-04-13T19:42:05.262Z,7.15
2018-04-13T19:44:33.539Z,7.09
2018-04-13T19:47:01.809Z,7.31
2018-04-13T19:49:30.829Z,7.39
2018-04-13T19:51:59.094Z,7.26
2018-04-13T19:54:28.116Z,7.13
2018-04-13T19:56:56.363Z,7.14
2018-04-13T19:59:25.393Z,7.25
2018-04-13T20:01:54.411Z,7.25
2018-04-13T20:04:22.664Z,7.26
2018-04-13T20:06:50.931Z,7.29
2018-04-13T20:09:19.955Z,7.58
2018-04-13T20:11:48.813Z,7.50
2018-04-13T20:14:24.982Z,7.35
2018-04-13T20:16:53.462Z,7.28
2018-04-13T20:19:22.480Z,7.28
2018-04-13T20:21:50.734Z,7.27
2018-04-13T20:24:19.846Z,7.31
2018-04-13T20:26:48.246Z,7.40
2018-04-13T20:29:16.507Z,7.47
2018-04-13T20:31:45.524Z,7.52
2018-04-13T20:34:13.797Z,7.57
2018-04-13T20:36:42.044Z,7.75
2018-04-13T20:39:10.297Z,7.84
2018-04-13T20:41:39.318Z,7.75
2018-04-13T20:44:07.571Z,7.53
2018-04-13T20:46:35.825Z,7.53
2018-04-13T20:49:04.088Z,7.32
2018-04-13T20:51:32.360Z,7.13
2018-04-13T20:54:01.367Z,7.08
2018-04-13T20:56:29.635Z,7.23
2018-04-13T20:58:59.900Z,6.82
2018-04-13T21:01:28.166Z,6.68
2018-04-13T21:03:56.421Z,6.63
2018-04-13T21:06:25.451Z,6.52
2018-04-13T21:08:53.706Z,6.55
2018-04-13T21:11:21.982Z,6.48
2018-04-13T21:13:51.078Z,6.40
2018-04-13T21:16:19.344Z,6.46
2018-04-13T21:18:47.603Z,6.69
2018-04-13T21:21:15.867Z,6.68
2018-04-13T21:23:44.123Z,6.56
2018-04-13T21:26:12.391Z,6.54
2018-04-13T21:28:41.411Z,6.50
2018-04-13T21:31:09.775Z,6.54
2018-04-13T21:33:38.029Z,6.58
2018-04-13T21:36:06.300Z,6.62
2018-04-13T21:38:34.543Z,6.68
2018-04-13T21:41:02.812Z,6.69
2018-04-13T21:43:31.090Z,6.73
2018-04-13T21:45:59.346Z,6.78
2018-04-13T21:48:28.395Z,6.98
2018-04-13T21:50:56.648Z,6.94
2018-04-13T21:53:24.903Z,6.63
2018-04-13T21:55:53.919Z,6.46
2018-04-13T21:58:22.427Z,6.60
2018-04-13T22:00:50.678Z,6.37
2018-04-13T22:03:19.696Z,6.23
2018-04-13T22:05:47.955Z,6.01
2018-04-13T22:08:16.988Z,5.95
2018-04-13T22:10:45.227Z,5.87
2018-04-13T22:13:29.911Z,5.87
2018-04-13T22:15:58.166Z,5.86
2018-04-13T22:18:27.186Z,5.79
2018-04-13T22:20:55.447Z,5.65
2018-04-13T22:23:24.470Z,5.55
2018-04-13T22:25:52.724Z,5.49
2018-04-13T22:28:20.991Z,5.46
2018-04-13T22:30:50.005Z,5.45
2018-04-13T22:33:18.266Z,5.58
2018-04-13T22:35:47.287Z,5.51
2018-04-13T22:38:15.658Z,5.39
2018-04-13T22:40:44.671Z,5.13
2018-04-13T22:43:13.039Z,5.03
2018-04-13T22:45:42.342Z,4.93
2018-04-13T22:48:11.364Z,4.94
2018-04-13T22:50:39.608Z,4.92
2018-04-13T22:53:08.639Z,4.88
2018-04-13T22:55:37.622Z,4.84
2018-04-13T22:58:05.931Z,4.76
2018-04-13T23:00:34.131Z,4.74
2018-04-13T23:03:02.382Z,4.70
2018-04-13T23:05:30.644Z,4.66
2018-04-13T23:07:59.167Z,4.61
2018-04-13T23:10:27.427Z,4.60
2018-04-13T23:12:55.683Z,4.57
2018-04-13T23:15:24.706Z,4.52
2018-04-13T23:17:52.963Z,4.46
2018-04-13T23:20:21.988Z,4.43
2018-04-13T23:22:50.240Z,4.40
2018-04-13T23:25:19.258Z,4.33
2018-04-13T23:27:47.509Z,4.30
2018-04-13T23:30:16.532Z,4.26
2018-04-13T23:32:44.774Z,4.21
2018-04-13T23:35:13.179Z,4.19
2018-04-13T23:37:41.896Z,4.11
2018-04-13T23:40:10.154Z,4.02
2018-04-13T23:42:39.176Z,4.00
2018-04-13T23:45:07.436Z,3.94
2018-04-13T23:47:35.691Z,3.89
2018-04-13T23:50:03.942Z,3.78
2018-04-13T23:52:32.439Z,3.87
2018-04-13T23:55:00.680Z,3.69
2018-04-13T23:57:28.927Z,3.65
2018-04-13T23:59:57.959Z,3.60
